sensor_id;sensor_type;location;lat;lon;timestamp;temperature;humidity
53264;DHT22;39153;52.680;6.172;2023-05-10T00:02:09;13.50;99.90
53264;DHT22;39153;52.680;6.172;2023-05-10T00:04:34;13.60;99.90
53264;DHT22;39153;52.680;6.172;2023-05-10T00:07:00;13.40;99.90
53264;DHT22;39153;52.680;6.172;2023-05-10T00:09:26;13.50;99.90
53264;DHT22;39153;52.680;6.172;2023-05-10T00:11:52;13.50;99.90
53264;DHT22;39153;52.680;6.172;2023-05-10T00:14:18;13.40;99.90
53264;DHT22;39153;52.680;6.172;2023-05-10T00:16:44;13.50;99.90
53264;DHT22;39153;52.680;6.172;2023-05-10T00:19:10;13.40;99.90
53264;DHT22;39153;52.680;6.172;2023-05-10T00:21:35;13.40;99.90
53264;DHT22;39153;52.680;6.172;2023-05-10T00:24:01;13.50;99.90
53264;DHT22;39153;52.680;6.172;2023-05-10T00:26:27;13.40;99.90
53264;DHT22;39153;52.680;6.172;2023-05-10T00:28:53;13.50;99.90
53264;DHT22;39153;52.680;6.172;2023-05-10T00:31:18;13.40;99.90
53264;DHT22;39153;52.680;6.172;2023-05-10T00:33:44;13.40;99.90
53264;DHT22;39153;52.680;6.172;2023-05-10T00:36:10;13.40;99.90
53264;DHT22;39153;52.680;6.172;2023-05-10T00:38:35;13.40;99.90
53264;DHT22;39153;52.680;6.172;2023-05-10T00:41:01;13.40;99.90
53264;DHT22;39153;52.680;6.172;2023-05-10T00:43:27;13.30;99.90
53264;DHT22;39153;52.680;6.172;2023-05-10T00:45:53;13.40;99.90
53264;DHT22;39153;52.680;6.172;2023-05-10T00:48:19;13.40;99.90
53264;DHT22;39153;52.680;6.172;2023-05-10T00:50:45;13.30;99.90
53264;DHT22;39153;52.680;6.172;2023-05-10T00:53:10;13.30;99.90
53264;DHT22;39153;52.680;6.172;2023-05-10T00:55:36;13.30;99.90
53264;DHT22;39153;52.680;6.172;2023-05-10T00:58:03;13.30;99.90
53264;DHT22;39153;52.680;6.172;2023-05-10T01:00:29;13.20;99.90
53264;DHT22;39153;52.680;6.172;2023-05-10T01:02:55;13.30;99.90
53264;DHT22;39153;52.680;6.172;2023-05-10T01:05:21;13.30;99.90
53264;DHT22;39153;52.680;6.172;2023-05-10T01:07:47;13.30;99.90
53264;DHT22;39153;52.680;6.172;2023-05-10T01:10:13;13.20;99.90
53264;DHT22;39153;52.680;6.172;2023-05-10T01:12:42;13.20;99.90
53264;DHT22;39153;52.680;6.172;2023-05-10T01:15:10;13.20;99.90
53264;DHT22;39153;52.680;6.172;2023-05-10T01:17:39;13.30;99.90
53264;DHT22;39153;52.680;6.172;2023-05-10T01:20:07;13.20;99.90
53264;DHT22;39153;52.680;6.172;2023-05-10T01:31:21;13.10;99.90
53264;DHT22;39153;52.680;6.172;2023-05-10T01:34:09;13.10;99.90
53264;DHT22;39153;52.680;6.172;2023-05-10T01:36:43;13.20;99.90
53264;DHT22;39153;52.680;6.172;2023-05-10T01:39:11;13.20;99.90
53264;DHT22;39153;52.680;6.172;2023-05-10T01:41:55;13.20;99.90
53264;DHT22;39153;52.680;6.172;2023-05-10T01:44:56;13.20;99.90
53264;DHT22;39153;52.680;6.172;2023-05-10T01:47:43;13.10;99.90
53264;DHT22;39153;52.680;6.172;2023-05-10T01:50:19;13.00;99.90
53264;DHT22;39153;52.680;6.172;2023-05-10T01:52:55;13.10;99.90
53264;DHT22;39153;52.680;6.172;2023-05-10T01:55:25;13.00;99.90
53264;DHT22;39153;52.680;6.172;2023-05-10T01:58:01;13.00;99.90
53264;DHT22;39153;52.680;6.172;2023-05-10T02:00:29;13.10;99.90
53264;DHT22;39153;52.680;6.172;2023-05-10T02:02:55;13.10;99.90
53264;DHT22;39153;52.680;6.172;2023-05-10T02:05:22;13.00;99.90
53264;DHT22;39153;52.680;6.172;2023-05-10T02:07:48;13.00;99.90
53264;DHT22;39153;52.680;6.172;2023-05-10T02:10:15;13.10;99.90
53264;DHT22;39153;52.680;6.172;2023-05-10T02:16:17;13.00;99.90
53264;DHT22;39153;52.680;6.172;2023-05-10T02:18:57;13.00;99.90
53264;DHT22;39153;52.680;6.172;2023-05-10T02:21:24;13.00;99.90
53264;DHT22;39153;52.680;6.172;2023-05-10T02:23:52;13.00;99.90
53264;DHT22;39153;52.680;6.172;2023-05-10T02:26:21;12.90;99.90
53264;DHT22;39153;52.680;6.172;2023-05-10T02:28:49;13.00;99.90
53264;DHT22;39153;52.680;6.172;2023-05-10T02:31:15;13.00;99.90
53264;DHT22;39153;52.680;6.172;2023-05-10T02:33:41;13.00;99.90
53264;DHT22;39153;52.680;6.172;2023-05-10T02:36:08;13.00;99.90
53264;DHT22;39153;52.680;6.172;2023-05-10T02:38:36;13.00;99.90
53264;DHT22;39153;52.680;6.172;2023-05-10T02:41:02;13.00;99.90
53264;DHT22;39153;52.680;6.172;2023-05-10T02:43:32;13.00;99.90
53264;DHT22;39153;52.680;6.172;2023-05-10T02:45:58;13.00;99.90
53264;DHT22;39153;52.680;6.172;2023-05-10T02:48:24;13.00;99.90
53264;DHT22;39153;52.680;6.172;2023-05-10T02:50:52;13.00;99.90
53264;DHT22;39153;52.680;6.172;2023-05-10T02:53:23;13.00;99.90
53264;DHT22;39153;52.680;6.172;2023-05-10T02:55:51;13.00;99.90
53264;DHT22;39153;52.680;6.172;2023-05-10T02:58:18;13.00;99.90
53264;DHT22;39153;52.680;6.172;2023-05-10T03:00:46;12.90;99.90
53264;DHT22;39153;52.680;6.172;2023-05-10T03:03:12;13.00;99.90
53264;DHT22;39153;52.680;6.172;2023-05-10T03:05:37;12.90;99.90
53264;DHT22;39153;52.680;6.172;2023-05-10T03:08:03;12.90;99.90
53264;DHT22;39153;52.680;6.172;2023-05-10T03:10:31;12.90;99.90
53264;DHT22;39153;52.680;6.172;2023-05-10T03:18:18;13.00;99.90
53264;DHT22;39153;52.680;6.172;2023-05-10T03:20:48;12.90;99.90
53264;DHT22;39153;52.680;6.172;2023-05-10T03:26:02;12.90;99.90
53264;DHT22;39153;52.680;6.172;2023-05-10T03:28:30;12.90;99.90
53264;DHT22;39153;52.680;6.172;2023-05-10T03:30:56;12.90;99.90
53264;DHT22;39153;52.680;6.172;2023-05-10T03:33:22;12.90;99.90
53264;DHT22;39153;52.680;6.172;2023-05-10T03:35:48;12.90;99.90
53264;DHT22;39153;52.680;6.172;2023-05-10T03:38:14;12.90;99.90
53264;DHT22;39153;52.680;6.172;2023-05-10T03:40:39;12.80;99.90
53264;DHT22;39153;52.680;6.172;2023-05-10T03:43:05;12.90;99.90
53264;DHT22;39153;52.680;6.172;2023-05-10T03:45:31;12.90;99.90
53264;DHT22;39153;52.680;6.172;2023-05-10T03:47:57;12.90;99.90
53264;DHT22;39153;52.680;6.172;2023-05-10T03:50:23;12.90;99.90
53264;DHT22;39153;52.680;6.172;2023-05-10T03:52:49;12.90;99.90
53264;DHT22;39153;52.680;6.172;2023-05-10T03:55:15;12.90;99.90
53264;DHT22;39153;52.680;6.172;2023-05-10T03:57:41;12.90;99.90
53264;DHT22;39153;52.680;6.172;2023-05-10T04:00:08;13.00;99.90
53264;DHT22;39153;52.680;6.172;2023-05-10T04:02:34;12.90;99.90
53264;DHT22;39153;52.680;6.172;2023-05-10T04:04:59;12.90;99.90
53264;DHT22;39153;52.680;6.172;2023-05-10T04:07:25;12.90;99.90
53264;DHT22;39153;52.680;6.172;2023-05-10T04:09:51;12.90;99.90
53264;DHT22;39153;52.680;6.172;2023-05-10T04:12:17;12.90;99.90
53264;DHT22;39153;52.680;6.172;2023-05-10T04:14:43;12.90;99.90
53264;DHT22;39153;52.680;6.172;2023-05-10T04:17:09;12.90;99.90
53264;DHT22;39153;52.680;6.172;2023-05-10T04:19:34;12.90;99.90
53264;DHT22;39153;52.680;6.172;2023-05-10T04:22:02;12.80;99.90
53264;DHT22;39153;52.680;6.172;2023-05-10T04:24:28;12.90;99.90
53264;DHT22;39153;52.680;6.172;2023-05-10T04:26:54;12.80;99.90
53264;DHT22;39153;52.680;6.172;2023-05-10T04:29:20;12.80;99.90
53264;DHT22;39153;52.680;6.172;2023-05-10T04:31:46;12.90;99.90
53264;DHT22;39153;52.680;6.172;2023-05-10T04:34:12;12.90;99.90
53264;DHT22;39153;52.680;6.172;2023-05-10T04:36:37;12.90;99.90
53264;DHT22;39153;52.680;6.172;2023-05-10T04:39:03;12.80;99.90
53264;DHT22;39153;52.680;6.172;2023-05-10T04:41:29;12.80;99.90
53264;DHT22;39153;52.680;6.172;2023-05-10T04:43:55;12.80;99.90
53264;DHT22;39153;52.680;6.172;2023-05-10T04:46:21;12.80;99.90
53264;DHT22;39153;52.680;6.172;2023-05-10T04:48:47;12.90;99.90
53264;DHT22;39153;52.680;6.172;2023-05-10T04:51:12;12.90;99.90
53264;DHT22;39153;52.680;6.172;2023-05-10T04:53:38;12.80;99.90
53264;DHT22;39153;52.680;6.172;2023-05-10T04:56:04;12.90;99.90
53264;DHT22;39153;52.680;6.172;2023-05-10T04:58:30;12.90;99.90
53264;DHT22;39153;52.680;6.172;2023-05-10T05:00:56;12.90;99.90
53264;DHT22;39153;52.680;6.172;2023-05-10T05:03:22;12.90;99.90
53264;DHT22;39153;52.680;6.172;2023-05-10T05:05:48;13.00;99.90
53264;DHT22;39153;52.680;6.172;2023-05-10T05:08:14;12.90;99.90
53264;DHT22;39153;52.680;6.172;2023-05-10T05:10:40;13.00;99.90
53264;DHT22;39153;52.680;6.172;2023-05-10T05:13:05;13.00;99.90
53264;DHT22;39153;52.680;6.172;2023-05-10T05:15:31;13.00;99.90
53264;DHT22;39153;52.680;6.172;2023-05-10T05:17:57;12.90;99.90
53264;DHT22;39153;52.680;6.172;2023-05-10T05:20:22;12.90;99.90
53264;DHT22;39153;52.680;6.172;2023-05-10T05:22:48;13.00;99.90
53264;DHT22;39153;52.680;6.172;2023-05-10T05:25:14;13.00;99.90
53264;DHT22;39153;52.680;6.172;2023-05-10T05:27:40;13.00;99.90
53264;DHT22;39153;52.680;6.172;2023-05-10T05:30:06;13.00;99.90
53264;DHT22;39153;52.680;6.172;2023-05-10T05:32:32;13.00;99.90
53264;DHT22;39153;52.680;6.172;2023-05-10T05:34:58;13.10;99.90
53264;DHT22;39153;52.680;6.172;2023-05-10T05:37:23;13.10;99.90
53264;DHT22;39153;52.680;6.172;2023-05-10T05:39:49;13.00;99.90
53264;DHT22;39153;52.680;6.172;2023-05-10T05:42:15;13.10;99.90
53264;DHT22;39153;52.680;6.172;2023-05-10T05:44:43;13.20;99.90
53264;DHT22;39153;52.680;6.172;2023-05-10T05:47:09;13.20;99.90
53264;DHT22;39153;52.680;6.172;2023-05-10T05:49:34;13.20;99.90
53264;DHT22;39153;52.680;6.172;2023-05-10T05:52:03;13.20;99.90
53264;DHT22;39153;52.680;6.172;2023-05-10T05:54:30;13.30;99.90
53264;DHT22;39153;52.680;6.172;2023-05-10T05:57:00;13.30;99.90
53264;DHT22;39153;52.680;6.172;2023-05-10T05:59:26;13.30;99.90
53264;DHT22;39153;52.680;6.172;2023-05-10T06:01:52;13.30;99.90
53264;DHT22;39153;52.680;6.172;2023-05-10T06:04:18;13.30;99.90
53264;DHT22;39153;52.680;6.172;2023-05-10T06:06:44;13.40;99.90
53264;DHT22;39153;52.680;6.172;2023-05-10T06:09:10;13.40;99.90
53264;DHT22;39153;52.680;6.172;2023-05-10T06:11:36;13.40;99.90
53264;DHT22;39153;52.680;6.172;2023-05-10T06:14:02;13.40;99.90
53264;DHT22;39153;52.680;6.172;2023-05-10T06:16:30;13.50;99.90
53264;DHT22;39153;52.680;6.172;2023-05-10T06:18:55;13.40;99.90
53264;DHT22;39153;52.680;6.172;2023-05-10T06:21:21;13.30;99.90
53264;DHT22;39153;52.680;6.172;2023-05-10T06:23:47;13.30;99.90
53264;DHT22;39153;52.680;6.172;2023-05-10T06:26:12;13.30;99.90
53264;DHT22;39153;52.680;6.172;2023-05-10T06:28:39;13.30;99.90
53264;DHT22;39153;52.680;6.172;2023-05-10T06:31:06;13.40;99.90
53264;DHT22;39153;52.680;6.172;2023-05-10T06:33:32;13.40;99.90
53264;DHT22;39153;52.680;6.172;2023-05-10T06:35:58;13.40;99.90
53264;DHT22;39153;52.680;6.172;2023-05-10T06:38:24;13.40;99.90
53264;DHT22;39153;52.680;6.172;2023-05-10T06:40:50;13.50;99.90
53264;DHT22;39153;52.680;6.172;2023-05-10T06:43:16;13.50;99.90
53264;DHT22;39153;52.680;6.172;2023-05-10T06:45:42;13.50;99.90
53264;DHT22;39153;52.680;6.172;2023-05-10T06:48:07;13.40;99.90
53264;DHT22;39153;52.680;6.172;2023-05-10T06:50:33;13.40;99.90
53264;DHT22;39153;52.680;6.172;2023-05-10T06:53:00;13.40;99.90
53264;DHT22;39153;52.680;6.172;2023-05-10T06:55:27;13.50;99.90
53264;DHT22;39153;52.680;6.172;2023-05-10T06:57:52;13.50;99.90
53264;DHT22;39153;52.680;6.172;2023-05-10T07:00:19;13.50;99.90
53264;DHT22;39153;52.680;6.172;2023-05-10T07:02:45;13.60;99.90
53264;DHT22;39153;52.680;6.172;2023-05-10T07:05:10;13.60;99.90
53264;DHT22;39153;52.680;6.172;2023-05-10T07:07:37;13.60;99.90
53264;DHT22;39153;52.680;6.172;2023-05-10T07:10:03;13.60;99.90
53264;DHT22;39153;52.680;6.172;2023-05-10T07:12:28;13.60;99.90
53264;DHT22;39153;52.680;6.172;2023-05-10T07:14:54;13.60;99.90
53264;DHT22;39153;52.680;6.172;2023-05-10T07:17:20;13.60;99.90
53264;DHT22;39153;52.680;6.172;2023-05-10T07:19:45;13.70;99.90
53264;DHT22;39153;52.680;6.172;2023-05-10T07:22:11;13.80;99.90
53264;DHT22;39153;52.680;6.172;2023-05-10T07:24:37;13.80;99.90
53264;DHT22;39153;52.680;6.172;2023-05-10T07:27:02;13.90;99.90
53264;DHT22;39153;52.680;6.172;2023-05-10T07:29:28;14.00;99.90
53264;DHT22;39153;52.680;6.172;2023-05-10T07:31:54;14.00;99.90
53264;DHT22;39153;52.680;6.172;2023-05-10T07:34:20;14.10;99.90
53264;DHT22;39153;52.680;6.172;2023-05-10T07:36:46;14.20;99.90
53264;DHT22;39153;52.680;6.172;2023-05-10T07:39:11;14.20;99.90
53264;DHT22;39153;52.680;6.172;2023-05-10T07:41:37;14.20;99.90
53264;DHT22;39153;52.680;6.172;2023-05-10T07:44:04;14.20;99.90
53264;DHT22;39153;52.680;6.172;2023-05-10T07:46:30;14.30;99.90
53264;DHT22;39153;52.680;6.172;2023-05-10T07:48:56;14.30;99.90
53264;DHT22;39153;52.680;6.172;2023-05-10T07:51:21;14.30;99.90
53264;DHT22;39153;52.680;6.172;2023-05-10T07:53:47;14.40;99.90
53264;DHT22;39153;52.680;6.172;2023-05-10T07:56:27;14.40;99.90
53264;DHT22;39153;52.680;6.172;2023-05-10T07:59:02;14.40;99.90
53264;DHT22;39153;52.680;6.172;2023-05-10T08:01:32;14.40;99.90
53264;DHT22;39153;52.680;6.172;2023-05-10T08:03:58;14.50;99.90
53264;DHT22;39153;52.680;6.172;2023-05-10T08:06:24;14.50;99.90
53264;DHT22;39153;52.680;6.172;2023-05-10T08:08:51;14.50;99.90
53264;DHT22;39153;52.680;6.172;2023-05-10T08:11:19;14.60;99.90
53264;DHT22;39153;52.680;6.172;2023-05-10T08:13:46;14.60;99.90
53264;DHT22;39153;52.680;6.172;2023-05-10T08:16:12;14.70;99.90
53264;DHT22;39153;52.680;6.172;2023-05-10T08:18:39;14.70;99.90
53264;DHT22;39153;52.680;6.172;2023-05-10T08:21:05;14.70;99.90
53264;DHT22;39153;52.680;6.172;2023-05-10T08:23:31;14.70;99.90
53264;DHT22;39153;52.680;6.172;2023-05-10T08:25:57;14.70;99.90
53264;DHT22;39153;52.680;6.172;2023-05-10T08:28:23;14.70;99.90
53264;DHT22;39153;52.680;6.172;2023-05-10T08:30:49;14.80;99.90
53264;DHT22;39153;52.680;6.172;2023-05-10T08:33:15;14.80;99.90
53264;DHT22;39153;52.680;6.172;2023-05-10T08:35:41;14.80;99.90
53264;DHT22;39153;52.680;6.172;2023-05-10T08:38:06;14.80;99.90
53264;DHT22;39153;52.680;6.172;2023-05-10T08:40:32;14.90;99.90
53264;DHT22;39153;52.680;6.172;2023-05-10T08:43:06;15.00;99.90
53264;DHT22;39153;52.680;6.172;2023-05-10T08:45:39;15.00;99.90
53264;DHT22;39153;52.680;6.172;2023-05-10T08:48:06;15.00;99.90
53264;DHT22;39153;52.680;6.172;2023-05-10T08:50:36;15.00;99.90
53264;DHT22;39153;52.680;6.172;2023-05-10T08:53:04;15.00;99.90
53264;DHT22;39153;52.680;6.172;2023-05-10T08:55:32;15.00;99.90
53264;DHT22;39153;52.680;6.172;2023-05-10T08:58:02;15.00;99.90
53264;DHT22;39153;52.680;6.172;2023-05-10T09:00:28;15.00;99.90
53264;DHT22;39153;52.680;6.172;2023-05-10T09:02:55;15.00;99.90
53264;DHT22;39153;52.680;6.172;2023-05-10T09:05:21;15.00;99.90
53264;DHT22;39153;52.680;6.172;2023-05-10T09:07:46;15.00;99.90
53264;DHT22;39153;52.680;6.172;2023-05-10T09:10:13;14.90;99.90
53264;DHT22;39153;52.680;6.172;2023-05-10T09:12:40;14.80;99.90
53264;DHT22;39153;52.680;6.172;2023-05-10T09:15:07;14.80;99.90
53264;DHT22;39153;52.680;6.172;2023-05-10T09:17:34;14.80;99.90
53264;DHT22;39153;52.680;6.172;2023-05-10T09:20:01;15.00;99.90
53264;DHT22;39153;52.680;6.172;2023-05-10T09:22:28;15.00;99.90
53264;DHT22;39153;52.680;6.172;2023-05-10T09:25:13;15.00;99.90
53264;DHT22;39153;52.680;6.172;2023-05-10T09:27:40;14.90;99.90
53264;DHT22;39153;52.680;6.172;2023-05-10T09:30:06;15.00;99.90
53264;DHT22;39153;52.680;6.172;2023-05-10T09:35:12;15.00;99.90
53264;DHT22;39153;52.680;6.172;2023-05-10T09:37:40;15.10;99.90
53264;DHT22;39153;52.680;6.172;2023-05-10T09:40:12;15.10;99.90
53264;DHT22;39153;52.680;6.172;2023-05-10T09:42:38;15.20;99.90
53264;DHT22;39153;52.680;6.172;2023-05-10T09:45:04;15.20;99.90
53264;DHT22;39153;52.680;6.172;2023-05-10T09:47:36;15.30;99.90
53264;DHT22;39153;52.680;6.172;2023-05-10T09:50:03;15.40;99.90
53264;DHT22;39153;52.680;6.172;2023-05-10T09:52:58;15.50;99.90
53264;DHT22;39153;52.680;6.172;2023-05-10T09:55:37;15.50;99.90
53264;DHT22;39153;52.680;6.172;2023-05-10T09:58:03;15.50;99.90
53264;DHT22;39153;52.680;6.172;2023-05-10T10:00:44;15.60;99.90
53264;DHT22;39153;52.680;6.172;2023-05-10T10:03:15;15.60;99.90
53264;DHT22;39153;52.680;6.172;2023-05-10T10:05:42;15.50;99.90
53264;DHT22;39153;52.680;6.172;2023-05-10T10:08:09;15.50;99.90
53264;DHT22;39153;52.680;6.172;2023-05-10T10:10:35;15.40;99.90
53264;DHT22;39153;52.680;6.172;2023-05-10T10:13:01;15.40;99.90
53264;DHT22;39153;52.680;6.172;2023-05-10T10:15:27;15.30;99.90
53264;DHT22;39153;52.680;6.172;2023-05-10T10:17:53;15.30;99.90
53264;DHT22;39153;52.680;6.172;2023-05-10T10:20:20;15.30;99.90
53264;DHT22;39153;52.680;6.172;2023-05-10T10:22:48;15.40;99.90
53264;DHT22;39153;52.680;6.172;2023-05-10T10:25:18;15.30;99.90
53264;DHT22;39153;52.680;6.172;2023-05-10T10:35:31;15.30;99.90
53264;DHT22;39153;52.680;6.172;2023-05-10T10:37:58;15.30;99.90
53264;DHT22;39153;52.680;6.172;2023-05-10T10:42:51;15.30;99.90
53264;DHT22;39153;52.680;6.172;2023-05-10T10:45:17;15.30;99.90
53264;DHT22;39153;52.680;6.172;2023-05-10T10:47:44;15.40;99.90
53264;DHT22;39153;52.680;6.172;2023-05-10T10:50:10;15.40;99.90
53264;DHT22;39153;52.680;6.172;2023-05-10T10:52:41;15.30;99.90
53264;DHT22;39153;52.680;6.172;2023-05-10T10:55:14;15.30;99.90
53264;DHT22;39153;52.680;6.172;2023-05-10T11:00:31;15.30;99.90
53264;DHT22;39153;52.680;6.172;2023-05-10T11:03:10;15.30;99.90
53264;DHT22;39153;52.680;6.172;2023-05-10T11:08:26;15.30;99.90
53264;DHT22;39153;52.680;6.172;2023-05-10T11:11:14;15.30;99.90
53264;DHT22;39153;52.680;6.172;2023-05-10T11:13:43;15.30;99.90
53264;DHT22;39153;52.680;6.172;2023-05-10T11:18:40;15.30;99.90
53264;DHT22;39153;52.680;6.172;2023-05-10T11:21:08;15.20;99.90
53264;DHT22;39153;52.680;6.172;2023-05-10T11:26:11;15.10;99.90
53264;DHT22;39153;52.680;6.172;2023-05-10T11:28:44;15.10;99.90
53264;DHT22;39153;52.680;6.172;2023-05-10T11:31:13;15.10;99.90
53264;DHT22;39153;52.680;6.172;2023-05-10T11:33:49;15.20;99.90
53264;DHT22;39153;52.680;6.172;2023-05-10T11:36:17;15.30;99.90
53264;DHT22;39153;52.680;6.172;2023-05-10T11:38:43;15.30;99.90
53264;DHT22;39153;52.680;6.172;2023-05-10T11:41:10;15.40;99.90
53264;DHT22;39153;52.680;6.172;2023-05-10T11:43:38;15.50;99.90
53264;DHT22;39153;52.680;6.172;2023-05-10T11:46:08;15.50;99.90
53264;DHT22;39153;52.680;6.172;2023-05-10T11:48:36;15.50;99.90
53264;DHT22;39153;52.680;6.172;2023-05-10T11:51:02;15.60;99.90
53264;DHT22;39153;52.680;6.172;2023-05-10T11:53:32;15.60;99.90
53264;DHT22;39153;52.680;6.172;2023-05-10T11:56:08;15.80;99.90
53264;DHT22;39153;52.680;6.172;2023-05-10T11:58:36;15.80;99.90
53264;DHT22;39153;52.680;6.172;2023-05-10T12:01:03;15.90;99.90
53264;DHT22;39153;52.680;6.172;2023-05-10T12:03:30;15.90;99.90
53264;DHT22;39153;52.680;6.172;2023-05-10T12:05:56;15.90;99.90
53264;DHT22;39153;52.680;6.172;2023-05-10T12:08:26;15.90;99.90
53264;DHT22;39153;52.680;6.172;2023-05-10T12:11:03;15.90;99.90
53264;DHT22;39153;52.680;6.172;2023-05-10T12:13:29;15.80;99.90
53264;DHT22;39153;52.680;6.172;2023-05-10T12:15:58;15.90;99.90
53264;DHT22;39153;52.680;6.172;2023-05-10T12:18:24;15.90;99.90
53264;DHT22;39153;52.680;6.172;2023-05-10T12:20:53;15.90;99.90
53264;DHT22;39153;52.680;6.172;2023-05-10T12:23:20;16.00;99.90
53264;DHT22;39153;52.680;6.172;2023-05-10T12:25:45;16.00;99.90
53264;DHT22;39153;52.680;6.172;2023-05-10T12:28:11;16.10;99.90
53264;DHT22;39153;52.680;6.172;2023-05-10T12:30:38;16.10;99.90
53264;DHT22;39153;52.680;6.172;2023-05-10T12:33:08;16.20;99.90
53264;DHT22;39153;52.680;6.172;2023-05-10T12:35:46;16.20;99.90
53264;DHT22;39153;52.680;6.172;2023-05-10T12:38:38;16.30;99.90
53264;DHT22;39153;52.680;6.172;2023-05-10T12:41:12;16.20;99.90
53264;DHT22;39153;52.680;6.172;2023-05-10T12:43:38;16.20;99.90
53264;DHT22;39153;52.680;6.172;2023-05-10T12:46:09;16.20;99.90
53264;DHT22;39153;52.680;6.172;2023-05-10T12:48:36;16.20;99.90
53264;DHT22;39153;52.680;6.172;2023-05-10T12:51:03;16.10;99.90
53264;DHT22;39153;52.680;6.172;2023-05-10T12:53:29;16.00;99.90
53264;DHT22;39153;52.680;6.172;2023-05-10T12:55:55;15.90;99.90
53264;DHT22;39153;52.680;6.172;2023-05-10T12:58:21;15.90;99.90
53264;DHT22;39153;52.680;6.172;2023-05-10T13:00:46;15.80;99.90
53264;DHT22;39153;52.680;6.172;2023-05-10T13:03:12;15.70;99.90
53264;DHT22;39153;52.680;6.172;2023-05-10T13:05:38;15.60;99.90
53264;DHT22;39153;52.680;6.172;2023-05-10T13:08:04;15.60;99.90
53264;DHT22;39153;52.680;6.172;2023-05-10T13:10:30;15.50;99.90
53264;DHT22;39153;52.680;6.172;2023-05-10T13:12:57;15.50;99.90
53264;DHT22;39153;52.680;6.172;2023-05-10T13:15:23;15.40;99.90
53264;DHT22;39153;52.680;6.172;2023-05-10T13:17:49;15.30;99.90
53264;DHT22;39153;52.680;6.172;2023-05-10T13:20:15;15.30;99.90
53264;DHT22;39153;52.680;6.172;2023-05-10T13:22:42;15.30;99.90
53264;DHT22;39153;52.680;6.172;2023-05-10T13:25:08;15.20;99.90
53264;DHT22;39153;52.680;6.172;2023-05-10T13:27:34;15.20;99.90
53264;DHT22;39153;52.680;6.172;2023-05-10T13:30:00;15.20;99.90
53264;DHT22;39153;52.680;6.172;2023-05-10T13:32:26;15.20;99.90
53264;DHT22;39153;52.680;6.172;2023-05-10T13:34:52;15.20;99.90
53264;DHT22;39153;52.680;6.172;2023-05-10T13:37:17;15.30;99.90
53264;DHT22;39153;52.680;6.172;2023-05-10T13:39:43;15.20;99.90
53264;DHT22;39153;52.680;6.172;2023-05-10T13:42:09;15.30;99.90
53264;DHT22;39153;52.680;6.172;2023-05-10T13:44:34;15.40;99.90
53264;DHT22;39153;52.680;6.172;2023-05-10T13:47:01;15.40;99.90
53264;DHT22;39153;52.680;6.172;2023-05-10T13:49:27;15.50;99.90
53264;DHT22;39153;52.680;6.172;2023-05-10T13:51:52;15.60;99.90
53264;DHT22;39153;52.680;6.172;2023-05-10T13:54:18;15.70;99.90
53264;DHT22;39153;52.680;6.172;2023-05-10T13:56:45;15.70;99.90
53264;DHT22;39153;52.680;6.172;2023-05-10T13:59:13;15.80;99.90
53264;DHT22;39153;52.680;6.172;2023-05-10T14:01:40;15.90;99.90
53264;DHT22;39153;52.680;6.172;2023-05-10T14:04:05;15.90;99.90
53264;DHT22;39153;52.680;6.172;2023-05-10T14:06:34;16.00;99.90
53264;DHT22;39153;52.680;6.172;2023-05-10T14:08:59;16.10;99.90
53264;DHT22;39153;52.680;6.172;2023-05-10T14:11:25;16.20;99.90
53264;DHT22;39153;52.680;6.172;2023-05-10T14:13:50;16.40;99.90
53264;DHT22;39153;52.680;6.172;2023-05-10T14:16:16;16.50;99.90
53264;DHT22;39153;52.680;6.172;2023-05-10T14:18:42;16.60;99.90
53264;DHT22;39153;52.680;6.172;2023-05-10T14:21:07;16.70;99.90
53264;DHT22;39153;52.680;6.172;2023-05-10T14:23:33;16.70;99.90
53264;DHT22;39153;52.680;6.172;2023-05-10T14:25:59;16.90;99.90
53264;DHT22;39153;52.680;6.172;2023-05-10T14:28:24;17.00;99.90
53264;DHT22;39153;52.680;6.172;2023-05-10T14:30:50;17.00;99.90
53264;DHT22;39153;52.680;6.172;2023-05-10T14:33:16;17.00;99.90
53264;DHT22;39153;52.680;6.172;2023-05-10T14:35:42;17.00;99.90
53264;DHT22;39153;52.680;6.172;2023-05-10T14:38:08;16.90;99.90
53264;DHT22;39153;52.680;6.172;2023-05-10T14:40:34;17.00;99.90
53264;DHT22;39153;52.680;6.172;2023-05-10T14:43:00;17.00;99.90
53264;DHT22;39153;52.680;6.172;2023-05-10T14:45:25;17.10;99.90
53264;DHT22;39153;52.680;6.172;2023-05-10T14:47:51;17.10;99.90
53264;DHT22;39153;52.680;6.172;2023-05-10T14:50:17;17.20;99.90
53264;DHT22;39153;52.680;6.172;2023-05-10T14:52:43;17.30;99.90
53264;DHT22;39153;52.680;6.172;2023-05-10T14:55:09;17.40;99.90
53264;DHT22;39153;52.680;6.172;2023-05-10T14:57:35;17.30;99.90
53264;DHT22;39153;52.680;6.172;2023-05-10T15:00:02;17.30;99.90
53264;DHT22;39153;52.680;6.172;2023-05-10T15:02:27;17.30;99.90
53264;DHT22;39153;52.680;6.172;2023-05-10T15:04:53;17.30;99.90
53264;DHT22;39153;52.680;6.172;2023-05-10T15:07:19;17.20;99.90
53264;DHT22;39153;52.680;6.172;2023-05-10T15:09:45;17.20;99.90
53264;DHT22;39153;52.680;6.172;2023-05-10T15:12:11;17.10;99.90
53264;DHT22;39153;52.680;6.172;2023-05-10T15:14:37;17.10;99.90
53264;DHT22;39153;52.680;6.172;2023-05-10T15:17:03;17.10;99.90
53264;DHT22;39153;52.680;6.172;2023-05-10T15:19:28;17.10;99.90
53264;DHT22;39153;52.680;6.172;2023-05-10T15:21:55;17.10;99.90
53264;DHT22;39153;52.680;6.172;2023-05-10T15:24:21;17.10;99.90
53264;DHT22;39153;52.680;6.172;2023-05-10T15:26:47;17.00;99.90
53264;DHT22;39153;52.680;6.172;2023-05-10T15:29:13;17.00;99.90
53264;DHT22;39153;52.680;6.172;2023-05-10T15:31:46;16.90;99.90
53264;DHT22;39153;52.680;6.172;2023-05-10T15:34:12;16.80;99.90
53264;DHT22;39153;52.680;6.172;2023-05-10T15:36:38;16.80;99.90
53264;DHT22;39153;52.680;6.172;2023-05-10T15:39:03;16.80;99.90
53264;DHT22;39153;52.680;6.172;2023-05-10T15:41:29;16.80;99.90
53264;DHT22;39153;52.680;6.172;2023-05-10T15:43:55;16.70;99.90
53264;DHT22;39153;52.680;6.172;2023-05-10T15:46:21;16.70;99.90
53264;DHT22;39153;52.680;6.172;2023-05-10T15:48:47;16.60;99.90
53264;DHT22;39153;52.680;6.172;2023-05-10T15:51:12;16.60;99.90
53264;DHT22;39153;52.680;6.172;2023-05-10T15:53:38;16.60;99.90
53264;DHT22;39153;52.680;6.172;2023-05-10T15:56:05;16.60;99.90
53264;DHT22;39153;52.680;6.172;2023-05-10T15:58:30;16.50;99.90
53264;DHT22;39153;52.680;6.172;2023-05-10T16:00:56;16.40;99.90
53264;DHT22;39153;52.680;6.172;2023-05-10T16:03:22;16.40;99.90
53264;DHT22;39153;52.680;6.172;2023-05-10T16:05:48;16.40;99.90
53264;DHT22;39153;52.680;6.172;2023-05-10T16:08:13;16.30;99.90
53264;DHT22;39153;52.680;6.172;2023-05-10T16:10:39;16.30;99.90
53264;DHT22;39153;52.680;6.172;2023-05-10T16:13:05;16.30;99.90
53264;DHT22;39153;52.680;6.172;2023-05-10T16:15:31;16.30;99.90